Decoded Metar for KAMN (ALMA in MI, USA) (IATA:AMN) | Meteo·Mobile Aviation Weather
aviador You're here:

KAMN Decoded Metar

ALMA in MI, USA
Report Time2018-12-14 11:36:00
UTC Time2018-12-14 11:54:57
Flight Rules ifr IFR
WindCalm
Visibility2414 m
Phenomena:N/A
Clouds:Overcast 005 Hf
Ceiling500 ft
Temp00°C (ISA -14)
Dew Point00°C (100% RH)
AAT-2.0°C
QNH1022 hPa
Density Alt-1,112 ft
Elevation755 ft
Report Wrong Elevation
Raw Report
KAMN 141136Z AUTO 00000KT 1 1/2SM UP OVC005 00/00 A3017 RMK AO2
T00030000=

Extra information for KAMN:More info

Metar Taf Metar & Taf Last 4 Metars F.Rules Stats Wind Profile Meteogram Temp Stats Airport Information Weather charts Add Link Nearby VenuesMetar ALERT Operation Metar Decoded Social comments

AIRNAV info for KAMN